DUB weather

Dublin Airport
Dublin, County Dublin, Ireland

Public forecast

Using degrees Celsius for public forecast. Weather courtesy of forecast.io.

METAR (pilot weather report)

Retrieved 2018/06/18 14:30 UTC (19 minutes ago):

EIDW 181430Z 25014KT 9999 -DZ FEW014 BKN018 17/13 Q1015 NOSIG

TAF (pilot weather forecast)

Retrieved 2018/06/18 12:11 UTC (3 hours ago):

TAF EIDW 181100Z 1812/1912 24015KT 9999 FEW015 BKN020 TEMPO 1812/1817 25017G27KT BECMG 1822/1901 27010KT BECMG 1904/1906 VRB03KT TEMPO 1910/1912 -RA BKN012 BECMG 1910/1912 12006KT